Terminal Aerodrome Forecast
Issued by NWS Upton, NY

Home | Current Version | Previous Version | Text Only | Print | Product List | Glossary On
Versions: 1 2 3 4 5 6 7 8 9 10 11 12 13 14 15 16 17 18 19 20 21 22 23 24 25 26
000
FTUS41 KOKX 251948 AAA
TAFISP
TAF AMD
KISP 251948Z 2520/2618 20015G22KT P6SM SCT250
     FM260000 21012G19KT P6SM FEW250
     FM260200 21010KT P6SM FEW150 FEW200
     FM261600 18011KT P6SM SCT070 SCT200=

USA.gov is the U.S. government's official web portal to all federal, state and local government web resources and services.